Time;durP1;ratioP1;P1;durP2;ratioP2;P2;SDS_P1;SDS_P2;PMS_P1;PMS_P2;Temp;Humidity;BMP_temperature;BMP_pressure;BME280_temperature;BME280_humidity;BME280_pressure;Samples;Min_cycle;Max_cycle;Signal;HPM_P1;HPM_P2
2023/05/27 00:01:06;;;;;;;14.17;6.20;;;15.60;67.70;;;;;;5010427;28;20247;-72
2023/05/27 00:03:32;;;;;;;10.63;5.70;;;15.60;67.70;;;;;;5009741;28;20196;-72
2023/05/27 00:05:58;;;;;;;14.73;5.83;;;15.50;67.90;;;;;;5008999;28;20192;-73
2023/05/27 00:08:23;;;;;;;8.87;5.10;;;15.50;67.60;;;;;;5001931;28;21266;-71
2023/05/27 00:10:49;;;;;;;13.17;5.30;;;15.50;67.90;;;;;;5004157;28;20236;-72
2023/05/27 00:13:15;;;;;;;13.70;6.10;;;15.60;67.90;;;;;;5005558;28;20235;-72
2023/05/27 00:15:41;;;;;;;12.10;5.63;;;15.60;67.90;;;;;;5002876;28;20541;-72
2023/05/27 00:18:06;;;;;;;11.63;5.80;;;15.60;67.60;;;;;;5007165;28;20220;-72
2023/05/27 00:20:32;;;;;;;11.60;6.27;;;15.70;67.60;;;;;;5010053;28;20437;-73
2023/05/27 00:22:59;;;;;;;10.47;5.70;;;15.70;67.30;;;;;;5009904;28;21007;-73
2023/05/27 00:25:25;;;;;;;11.93;5.20;;;15.70;67.20;;;;;;5008694;28;20578;-72
2023/05/27 00:27:51;;;;;;;14.93;5.50;;;15.70;66.90;;;;;;5003198;28;20472;-72
2023/05/27 00:30:17;;;;;;;12.40;5.40;;;15.70;66.90;;;;;;5007715;28;20189;-74
2023/05/27 00:32:43;;;;;;;14.30;5.40;;;15.80;66.40;;;;;;5007967;28;20262;-72
2023/05/27 00:35:09;;;;;;;9.00;5.40;;;15.80;66.30;;;;;;5004831;28;20958;-72
2023/05/27 00:37:34;;;;;;;11.13;5.23;;;15.80;66.10;;;;;;5004273;28;20699;-72
2023/05/27 00:40:00;;;;;;;20.60;6.73;;;15.80;65.80;;;;;;5008100;28;20443;-72
2023/05/27 00:42:26;;;;;;;14.33;4.73;;;15.80;65.80;;;;;;5011642;28;20190;-72
2023/05/27 00:44:51;;;;;;;9.13;5.20;;;15.80;66.00;;;;;;5005262;28;20189;-71
2023/05/27 00:47:17;;;;;;;12.33;4.67;;;15.80;66.10;;;;;;5010220;28;20825;-73
2023/05/27 00:49:44;;;;;;;11.40;5.70;;;15.80;66.10;;;;;;5011629;28;20192;-73
2023/05/27 00:52:10;;;;;;;19.27;5.63;;;15.70;66.30;;;;;;5013290;28;20593;-73
2023/05/27 00:54:36;;;;;;;9.17;5.37;;;15.70;66.40;;;;;;5014039;28;20901;-74
2023/05/27 00:57:02;;;;;;;11.63;5.33;;;15.70;66.60;;;;;;5012716;28;20499;-72
2023/05/27 00:59:28;;;;;;;16.13;5.53;;;15.60;66.60;;;;;;5011535;28;20186;-72
2023/05/27 01:01:54;;;;;;;14.47;5.13;;;15.60;66.60;;;;;;5011544;28;20431;-74
2023/05/27 01:04:20;;;;;;;10.87;4.97;;;15.60;66.60;;;;;;5003022;28;20440;-73
2023/05/27 01:07:12;;;;;;;8.80;4.70;;;15.50;66.70;;;;;;5010529;28;20226;-72
2023/05/27 01:09:50;;;;;;;12.13;4.70;;;15.40;66.90;;;;;;5013064;28;20440;-72
2023/05/27 01:12:39;;;;;;;14.00;5.47;;;15.30;67.20;;;;;;5007385;28;20926;-73
2023/05/27 01:15:06;;;;;;;12.77;4.70;;;15.40;67.20;;;;;;5013251;28;20427;-73
2023/05/27 01:17:37;;;;;;;15.60;6.00;;;15.30;67.00;;;;;;5006444;28;21371;-72
2023/05/27 01:20:05;;;;;;;11.40;5.20;;;15.30;67.30;;;;;;5011665;28;20955;-73
2023/05/27 01:22:31;;;;;;;14.80;5.33;;;15.20;67.90;;;;;;5012242;28;20927;-72
2023/05/27 01:24:57;;;;;;;8.93;5.10;;;15.10;68.20;;;;;;5013405;28;20520;-75
2023/05/27 01:27:24;;;;;;;12.23;4.37;;;15.10;68.30;;;;;;5009440;28;20535;-72
2023/05/27 01:29:51;;;;;;;11.40;5.20;;;15.00;68.30;;;;;;5011574;28;20436;-72
2023/05/27 01:32:58;;;;;;;11.30;5.00;;;14.90;68.50;;;;;;5012284;28;20488;-73
2023/05/27 01:35:27;;;;;;;11.73;5.03;;;14.80;69.10;;;;;;4950016;29;20431;-72
2023/05/27 01:37:54;;;;;;;8.60;4.80;;;14.60;69.40;;;;;;4994210;28;20489;-72
2023/05/27 01:40:21;;;;;;;10.73;5.17;;;14.60;69.50;;;;;;5009082;28;20979;-73
2023/05/27 01:42:47;;;;;;;12.20;4.57;;;14.60;69.70;;;;;;5012882;28;20453;-73
2023/05/27 01:45:13;;;;;;;10.40;4.50;;;14.60;69.50;;;;;;5010010;28;20428;-73
2023/05/27 01:47:38;;;;;;;14.13;4.77;;;14.60;69.50;;;;;;5010399;28;20461;-72
2023/05/27 01:50:05;;;;;;;12.30;5.10;;;14.60;69.50;;;;;;5007625;28;20203;-73
2023/05/27 01:52:30;;;;;;;14.50;4.73;;;14.50;69.50;;;;;;5008393;28;20194;-73
2023/05/27 01:54:56;;;;;;;11.37;5.23;;;14.50;69.70;;;;;;5007549;28;20437;-73
2023/05/27 01:57:24;;;;;;;11.77;4.90;;;14.40;69.80;;;;;;5010253;28;20217;-72
2023/05/27 01:59:50;;;;;;;9.47;4.50;;;14.40;69.90;;;;;;5006768;28;20211;-72
2023/05/27 02:02:15;;;;;;;9.67;4.37;;;14.40;70.10;;;;;;5015702;28;20460;-73
2023/05/27 02:04:41;;;;;;;8.87;4.57;;;14.40;70.10;;;;;;5008487;28;20714;-73
2023/05/27 02:07:06;;;;;;;13.00;4.90;;;14.40;70.20;;;;;;5015000;28;20187;-71
2023/05/27 02:09:32;;;;;;;10.63;4.60;;;14.30;70.50;;;;;;5012297;28;20622;-72
2023/05/27 02:11:58;;;;;;;11.40;5.50;;;14.30;70.20;;;;;;5014708;28;20587;-72
2023/05/27 02:14:23;;;;;;;9.27;4.37;;;14.30;70.20;;;;;;5015123;28;20228;-73
2023/05/27 02:16:49;;;;;;;11.70;4.90;;;14.40;70.20;;;;;;5014189;28;20220;-72
2023/05/27 02:19:15;;;;;;;15.07;4.87;;;14.40;70.20;;;;;;5005873;28;20202;-73
2023/05/27 02:21:41;;;;;;;12.70;5.37;;;14.30;70.10;;;;;;5014146;28;20240;-73
2023/05/27 02:24:07;;;;;;;13.80;4.90;;;14.30;70.20;;;;;;5013039;28;20865;-73
2023/05/27 02:26:33;;;;;;;8.83;4.83;;;14.30;70.50;;;;;;5013380;28;20195;-73
2023/05/27 02:28:59;;;;;;;12.70;5.30;;;14.20;70.50;;;;;;5007034;28;20461;-72
2023/05/27 02:31:24;;;;;;;11.60;5.30;;;14.20;70.80;;;;;;5006386;28;20817;-74
2023/05/27 02:33:50;;;;;;;13.03;4.90;;;14.20;71.00;;;;;;5008968;28;20200;-73
2023/05/27 02:36:15;;;;;;;13.90;4.50;;;14.10;71.00;;;;;;5010948;28;20221;-73
2023/05/27 02:38:41;;;;;;;15.30;5.33;;;14.10;71.10;;;;;;5003757;28;20700;-72
2023/05/27 02:41:06;;;;;;;18.30;5.23;;;14.10;71.10;;;;;;5009002;28;20183;-73
2023/05/27 02:43:32;;;;;;;10.80;4.63;;;14.10;71.10;;;;;;5007593;28;20185;-73
2023/05/27 02:45:58;;;;;;;10.13;5.70;;;14.10;71.10;;;;;;5008715;28;20266;-71
2023/05/27 02:48:23;;;;;;;10.90;4.30;;;14.00;71.10;;;;;;5010177;28;20224;-73
2023/05/27 02:50:49;;;;;;;11.10;4.80;;;14.00;71.30;;;;;;5009601;28;20217;-72
2023/05/27 02:53:14;;;;;;;14.83;5.03;;;13.90;71.40;;;;;;5008979;28;20195;-72
2023/05/27 02:55:40;;;;;;;10.70;4.77;;;13.90;71.60;;;;;;4997623;28;20216;-73
2023/05/27 02:58:06;;;;;;;9.53;4.80;;;13.80;71.60;;;;;;5006204;28;20294;-73
2023/05/27 03:00:33;;;;;;;20.17;4.80;;;13.80;71.70;;;;;;5000002;28;20844;-74
2023/05/27 03:02:59;;;;;;;11.70;5.20;;;13.80;71.70;;;;;;5007557;28;20433;-74
2023/05/27 03:05:24;;;;;;;11.80;4.90;;;13.80;71.60;;;;;;5008683;28;20794;-72
2023/05/27 03:07:50;;;;;;;14.27;5.80;;;13.80;71.80;;;;;;5003615;28;20292;-72
2023/05/27 03:10:16;;;;;;;14.80;4.60;;;13.70;72.00;;;;;;5009529;28;20197;-71
2023/05/27 03:12:41;;;;;;;14.43;5.47;;;13.70;72.00;;;;;;5006862;28;20198;-73
2023/05/27 03:15:07;;;;;;;8.40;4.67;;;13.70;72.00;;;;;;5008585;28;20190;-72
2023/05/27 03:17:36;;;;;;;7.97;4.27;;;13.70;72.10;;;;;;5002582;28;20233;-72
2023/05/27 03:20:03;;;;;;;9.63;5.07;;;13.70;72.10;;;;;;5006944;28;20197;-72
2023/05/27 03:22:29;;;;;;;20.60;5.10;;;13.60;72.00;;;;;;5005785;28;20519;-73
2023/05/27 03:24:54;;;;;;;8.67;4.40;;;13.60;72.10;;;;;;5003846;28;20567;-74
2023/05/27 03:27:20;;;;;;;14.67;4.80;;;13.60;72.10;;;;;;5003562;28;20228;-73
2023/05/27 03:29:46;;;;;;;10.57;5.03;;;13.60;72.10;;;;;;5000765;28;20731;-73
2023/05/27 03:32:12;;;;;;;18.33;6.10;;;13.60;72.10;;;;;;5005408;28;20198;-72
2023/05/27 03:34:37;;;;;;;12.10;5.00;;;13.50;72.30;;;;;;5005492;28;20340;-72
2023/05/27 03:37:03;;;;;;;9.97;4.83;;;13.40;72.40;;;;;;5008775;28;20634;-73
2023/05/27 03:39:29;;;;;;;12.70;5.10;;;13.40;72.40;;;;;;5008996;28;20221;-73
2023/05/27 03:41:55;;;;;;;15.67;4.67;;;13.40;72.40;;;;;;5010961;28;20902;-73
2023/05/27 03:44:21;;;;;;;13.73;5.77;;;13.40;72.40;;;;;;5007998;28;20182;-73
2023/05/27 03:46:46;;;;;;;10.33;5.33;;;13.40;72.40;;;;;;5001965;28;20232;-73
2023/05/27 03:49:12;;;;;;;12.77;5.03;;;13.30;72.40;;;;;;5005308;28;20589;-73
2023/05/27 03:51:38;;;;;;;16.63;5.17;;;13.30;72.70;;;;;;5006318;28;20233;-73
2023/05/27 03:54:03;;;;;;;13.80;6.10;;;13.30;72.40;;;;;;5012687;28;20856;-73
2023/05/27 03:56:29;;;;;;;14.00;4.70;;;13.30;72.40;;;;;;5006154;28;20704;-72
2023/05/27 03:58:56;;;;;;;16.33;5.10;;;13.30;72.40;;;;;;5005670;28;20216;-72
2023/05/27 04:01:21;;;;;;;11.03;4.93;;;13.30;72.40;;;;;;5008760;28;20213;-73
2023/05/27 04:03:47;;;;;;;14.07;4.80;;;13.40;72.40;;;;;;5012111;28;20434;-72
2023/05/27 04:06:12;;;;;;;13.67;5.13;;;13.40;72.40;;;;;;5007903;28;20190;-72
2023/05/27 04:08:40;;;;;;;14.17;4.87;;;13.40;72.40;;;;;;5008594;28;20708;-71
2023/05/27 04:11:06;;;;;;;15.43;5.53;;;13.40;72.40;;;;;;5007960;28;20182;-73
2023/05/27 04:13:31;;;;;;;10.20;5.07;;;13.30;72.40;;;;;;5004745;28;20436;-73
2023/05/27 04:15:57;;;;;;;8.50;4.57;;;13.30;72.40;;;;;;5009027;28;20261;-73
2023/05/27 04:18:23;;;;;;;15.53;5.27;;;13.30;72.40;;;;;;5015834;28;20213;-71
2023/05/27 04:20:50;;;;;;;9.90;5.37;;;13.30;72.70;;;;;;5013061;28;20194;-71
2023/05/27 04:23:16;;;;;;;16.43;6.23;;;13.30;72.60;;;;;;5019945;28;20344;-72
2023/05/27 04:25:41;;;;;;;10.73;5.13;;;13.40;72.40;;;;;;5016548;28;20421;-72
2023/05/27 04:28:08;;;;;;;9.87;4.77;;;13.40;72.40;;;;;;5011939;28;20220;-73
2023/05/27 04:30:34;;;;;;;8.80;5.00;;;13.40;72.40;;;;;;5014915;28;20190;-71
2023/05/27 04:33:00;;;;;;;8.87;4.53;;;13.40;72.60;;;;;;5011102;28;20424;-73
2023/05/27 04:35:26;;;;;;;13.13;5.07;;;13.40;72.60;;;;;;5012185;28;21038;-74
2023/05/27 04:37:52;;;;;;;12.80;5.07;;;13.50;72.60;;;;;;5013404;28;20487;-70
2023/05/27 04:40:19;;;;;;;10.00;4.30;;;13.50;72.40;;;;;;5015107;28;20432;-72
2023/05/27 04:42:44;;;;;;;10.70;4.90;;;13.60;72.40;;;;;;5016816;28;20228;-71
2023/05/27 04:45:11;;;;;;;10.80;4.67;;;13.60;72.40;;;;;;5017522;28;20440;-71
2023/05/27 04:47:37;;;;;;;12.23;4.87;;;13.70;72.40;;;;;;5011106;28;20703;-71
2023/05/27 04:50:04;;;;;;;17.70;6.00;;;13.70;72.30;;;;;;5016173;28;20447;-72
2023/05/27 04:52:36;;;;;;;16.20;5.60;;;13.80;72.00;;;;;;5012113;28;20452;-71
2023/05/27 04:55:05;;;;;;;10.50;5.63;;;13.80;72.00;;;;;;5008009;28;20428;-72
2023/05/27 04:57:32;;;;;;;16.93;5.97;;;13.80;71.60;;;;;;5001930;28;20534;-71
2023/05/27 05:00:17;;;;;;;13.23;5.70;;;13.80;71.70;;;;;;5012495;28;20485;-72
2023/05/27 05:02:46;;;;;;;16.27;5.17;;;14.00;71.70;;;;;;5007233;28;20512;-73
2023/05/27 05:05:12;;;;;;;15.23;5.90;;;14.10;71.80;;;;;;5010007;28;20416;-73
2023/05/27 05:07:39;;;;;;;11.70;5.13;;;14.00;71.00;;;;;;5008849;28;20476;-72
2023/05/27 05:10:08;;;;;;;19.83;6.13;;;14.00;71.10;;;;;;5012480;28;20192;-72
2023/05/27 05:12:35;;;;;;;16.23;5.80;;;14.10;71.60;;;;;;5012559;28;20444;-73
2023/05/27 05:15:01;;;;;;;13.07;5.87;;;14.20;71.80;;;;;;5010034;28;21066;-72
2023/05/27 05:17:27;;;;;;;14.63;4.90;;;14.10;71.30;;;;;;5014771;28;20504;-72
2023/05/27 05:19:53;;;;;;;10.83;4.30;;;14.10;71.10;;;;;;5018631;28;20479;-74
2023/05/27 05:22:20;;;;;;;15.23;5.47;;;14.20;70.80;;;;;;5020039;28;20221;-73
2023/05/27 05:24:46;;;;;;;15.03;4.80;;;14.20;70.80;;;;;;5020057;28;20455;-72
2023/05/27 05:27:12;;;;;;;11.60;5.30;;;14.20;70.80;;;;;;5022208;28;20931;-72
2023/05/27 05:29:37;;;;;;;18.00;6.03;;;13.90;71.10;;;;;;5016254;28;20197;-73
2023/05/27 05:32:04;;;;;;;16.57;6.00;;;13.80;71.40;;;;;;5021192;28;20185;-72
2023/05/27 05:34:29;;;;;;;12.20;5.57;;;13.70;72.00;;;;;;5018682;28;20194;-72
2023/05/27 05:36:55;;;;;;;12.23;4.60;;;13.90;71.70;;;;;;5009982;28;20484;-73
2023/05/27 05:39:21;;;;;;;16.90;5.70;;;14.00;71.60;;;;;;5006305;28;20242;-72
2023/05/27 05:41:46;;;;;;;14.83;5.70;;;14.00;71.30;;;;;;5013738;28;20186;-73
2023/05/27 05:44:12;;;;;;;18.27;5.57;;;14.00;71.30;;;;;;5009471;28;20248;-73
2023/05/27 05:46:38;;;;;;;13.10;5.33;;;14.00;71.40;;;;;;5002714;28;20194;-73
2023/05/27 05:49:04;;;;;;;23.90;6.03;;;14.00;71.60;;;;;;5011795;28;20206;-74
2023/05/27 05:51:30;;;;;;;11.20;5.53;;;13.90;71.40;;;;;;5012458;28;20770;-72
2023/05/27 05:53:59;;;;;;;13.77;5.67;;;13.90;71.70;;;;;;5012089;28;20935;-72
2023/05/27 05:56:28;;;;;;;18.10;5.10;;;13.90;71.60;;;;;;5011801;28;20562;-73
2023/05/27 05:58:54;;;;;;;22.03;6.07;;;14.00;71.70;;;;;;5012152;28;20837;-72
2023/05/27 06:01:19;;;;;;;13.13;5.50;;;14.10;71.40;;;;;;5014697;28;20541;-73
2023/05/27 06:03:45;;;;;;;13.43;5.87;;;14.10;71.40;;;;;;5019105;28;20204;-72
2023/05/27 06:06:11;;;;;;;19.37;5.80;;;14.20;71.40;;;;;;5010862;28;20185;-74
2023/05/27 06:08:37;;;;;;;18.83;5.63;;;14.20;71.60;;;;;;5009602;28;20288;-74
2023/05/27 06:11:02;;;;;;;9.90;4.97;;;14.10;71.40;;;;;;5010745;28;20974;-73
2023/05/27 06:13:28;;;;;;;10.03;5.33;;;14.10;71.80;;;;;;5012974;28;20189;-74
2023/05/27 06:15:55;;;;;;;13.87;5.20;;;14.30;71.80;;;;;;5013217;28;20473;-73
2023/05/27 06:18:21;;;;;;;17.70;5.33;;;14.40;71.60;;;;;;5012170;28;20578;-73
2023/05/27 06:20:47;;;;;;;13.87;4.80;;;14.50;71.00;;;;;;5009204;28;21159;-74
2023/05/27 06:23:13;;;;;;;12.47;4.90;;;14.60;70.80;;;;;;5009018;28;20453;-74
2023/05/27 06:25:38;;;;;;;16.37;6.00;;;14.70;70.50;;;;;;5008425;28;20192;-74
2023/05/27 06:28:04;;;;;;;14.03;5.53;;;14.80;70.40;;;;;;5008715;28;20593;-74
2023/05/27 06:30:31;;;;;;;14.47;5.47;;;14.80;70.20;;;;;;5010096;28;20449;-72
2023/05/27 06:32:57;;;;;;;13.73;4.57;;;14.90;69.50;;;;;;5011041;28;20219;-74
2023/05/27 06:35:22;;;;;;;12.43;5.43;;;15.00;69.70;;;;;;5010214;28;20995;-72
2023/05/27 06:37:48;;;;;;;13.77;5.60;;;15.10;69.40;;;;;;5016464;28;20219;-74
2023/05/27 06:40:13;;;;;;;14.50;4.70;;;15.30;69.10;;;;;;5020803;28;20257;-73
2023/05/27 06:42:39;;;;;;;11.43;5.20;;;15.30;68.80;;;;;;5018221;28;20694;-72
2023/05/27 06:45:06;;;;;;;12.53;5.67;;;15.50;68.90;;;;;;5014074;28;20667;-73
2023/05/27 06:47:31;;;;;;;11.10;5.63;;;15.70;68.60;;;;;;5010206;28;20298;-73
2023/05/27 06:49:57;;;;;;;12.93;5.63;;;15.80;68.00;;;;;;5012821;28;20985;-76
2023/05/27 06:52:22;;;;;;;10.70;4.90;;;15.80;67.90;;;;;;5010769;28;20301;-72
2023/05/27 06:54:48;;;;;;;15.57;6.37;;;15.80;67.90;;;;;;5014942;28;20560;-74
2023/05/27 06:57:14;;;;;;;12.50;4.97;;;15.70;67.60;;;;;;5011201;28;20258;-73
2023/05/27 06:59:40;;;;;;;13.57;5.50;;;15.50;68.50;;;;;;5012881;28;20607;-74
2023/05/27 07:02:06;;;;;;;11.03;5.30;;;15.60;68.60;;;;;;5013231;28;20435;-74
2023/05/27 07:04:32;;;;;;;10.80;5.67;;;15.80;68.20;;;;;;5011345;28;20485;-75
2023/05/27 07:06:58;;;;;;;14.40;5.77;;;15.80;67.70;;;;;;5012988;28;20439;-73
2023/05/27 07:09:23;;;;;;;19.17;6.20;;;15.80;68.00;;;;;;5010491;28;20453;-73
2023/05/27 07:11:49;;;;;;;12.00;5.90;;;15.90;67.70;;;;;;5009353;28;20662;-72
2023/05/27 07:14:15;;;;;;;13.00;7.60;;;15.80;68.30;;;;;;5006582;28;20622;-73
2023/05/27 07:16:40;;;;;;;19.20;7.10;;;15.60;68.50;;;;;;5013312;28;20240;-73
2023/05/27 07:19:06;;;;;;;16.50;7.00;;;15.50;68.90;;;;;;5005761;28;20208;-75
2023/05/27 07:21:32;;;;;;;20.93;7.30;;;15.70;68.80;;;;;;5012245;28;20197;-74
2023/05/27 07:23:58;;;;;;;15.67;6.43;;;15.90;68.80;;;;;;5011630;28;20191;-72
2023/05/27 07:26:25;;;;;;;19.60;6.27;;;16.10;68.00;;;;;;5012610;28;20213;-73
2023/05/27 07:28:52;;;;;;;14.67;6.37;;;16.30;67.30;;;;;;5006489;28;20313;-74
2023/05/27 07:31:17;;;;;;;17.10;5.80;;;16.30;67.50;;;;;;5002979;28;20436;-72
2023/05/27 07:33:43;;;;;;;10.67;6.00;;;16.40;67.00;;;;;;5011689;28;20429;-73
2023/05/27 07:36:10;;;;;;;11.47;5.43;;;16.60;66.90;;;;;;5012943;28;20224;-72
2023/05/27 07:38:35;;;;;;;14.80;5.93;;;16.70;66.10;;;;;;5008064;28;20223;-72
2023/05/27 07:41:01;;;;;;;11.40;5.23;;;16.70;66.30;;;;;;5026020;28;20429;-73
2023/05/27 07:43:27;;;;;;;13.03;5.33;;;16.90;65.60;;;;;;5032819;28;20280;-72
2023/05/27 07:45:52;;;;;;;14.80;5.20;;;16.60;65.80;;;;;;5031807;28;20500;-73
2023/05/27 07:48:18;;;;;;;13.70;5.67;;;16.60;66.90;;;;;;5020865;28;20221;-71
2023/05/27 07:50:44;;;;;;;13.53;6.80;;;16.60;66.00;;;;;;5029146;28;20212;-73
2023/05/27 07:53:09;;;;;;;14.23;5.20;;;16.70;66.30;;;;;;5030230;28;20194;-72
2023/05/27 07:55:35;;;;;;;17.90;6.30;;;16.80;66.10;;;;;;5019417;28;20719;-74
2023/05/27 07:58:00;;;;;;;14.60;5.60;;;17.00;65.70;;;;;;5010639;28;20699;-72
2023/05/27 08:00:26;;;;;;;16.77;5.80;;;17.10;65.30;;;;;;5012309;28;20183;-75
2023/05/27 08:02:52;;;;;;;10.43;5.60;;;17.20;64.70;;;;;;5012742;28;20251;-74
2023/05/27 08:05:17;;;;;;;14.67;6.50;;;17.20;64.70;;;;;;5004402;28;20193;-74
2023/05/27 08:07:43;;;;;;;12.43;6.10;;;17.40;64.70;;;;;;5004070;28;20476;-71
2023/05/27 08:10:09;;;;;;;46.40;23.43;;;17.50;64.40;;;;;;5012086;28;20183;-72
2023/05/27 08:12:35;;;;;;;19.83;10.30;;;17.60;63.90;;;;;;5007425;28;20212;-72
2023/05/27 08:15:00;;;;;;;21.37;10.80;;;17.70;63.50;;;;;;5003891;28;20426;-72
2023/05/27 08:17:26;;;;;;;15.13;6.53;;;17.90;63.10;;;;;;5006423;28;20705;-73
2023/05/27 08:19:51;;;;;;;13.83;6.33;;;17.70;63.20;;;;;;5008398;28;20198;-73
2023/05/27 08:22:17;;;;;;;18.83;6.50;;;17.80;63.20;;;;;;5009898;28;20299;-74
2023/05/27 08:24:43;;;;;;;12.17;6.40;;;18.00;62.60;;;;;;5008433;28;20188;-73
2023/05/27 08:27:15;;;;;;;11.93;5.90;;;17.90;62.20;;;;;;5008487;28;20198;-71
2023/05/27 08:29:41;;;;;;;11.63;6.27;;;17.90;62.30;;;;;;5006039;28;20196;-73
2023/05/27 08:32:07;;;;;;;14.47;6.57;;;18.00;62.30;;;;;;5007754;28;20497;-74
2023/05/27 08:34:32;;;;;;;20.83;7.03;;;18.00;61.70;;;;;;5008340;28;20532;-72
2023/05/27 08:36:59;;;;;;;14.03;5.87;;;17.90;62.30;;;;;;5003454;28;20237;-75
2023/05/27 08:39:26;;;;;;;17.73;6.53;;;18.00;62.30;;;;;;5002382;28;20854;-73
2023/05/27 08:41:53;;;;;;;11.60;5.80;;;18.10;61.90;;;;;;5008304;28;21311;-73
2023/05/27 08:44:21;;;;;;;14.10;5.97;;;18.10;62.00;;;;;;5006881;28;20422;-74
2023/05/27 08:46:48;;;;;;;30.17;5.80;;;18.30;61.90;;;;;;5004764;28;20427;-74
2023/05/27 08:49:14;;;;;;;19.20;7.17;;;18.50;61.00;;;;;;5005840;28;20849;-73
2023/05/27 08:51:41;;;;;;;16.67;6.10;;;18.50;61.20;;;;;;5007469;28;20531;-73
2023/05/27 08:54:08;;;;;;;12.90;6.00;;;18.50;61.50;;;;;;5010623;28;20510;-72
2023/05/27 08:56:35;;;;;;;15.20;6.27;;;18.70;61.20;;;;;;5008500;28;20471;-74
2023/05/27 08:59:01;;;;;;;11.60;5.80;;;18.90;60.10;;;;;;5011494;28;20877;-73
2023/05/27 09:01:27;;;;;;;17.13;6.73;;;18.70;60.40;;;;;;5008775;28;20435;-73
2023/05/27 09:03:55;;;;;;;14.47;7.10;;;18.90;60.70;;;;;;5012486;28;20199;-72
2023/05/27 09:06:21;;;;;;;14.97;6.63;;;18.90;59.70;;;;;;5008942;28;20434;-74
2023/05/27 09:08:46;;;;;;;11.50;5.87;;;19.00;60.30;;;;;;5012384;28;20605;-73
2023/05/27 09:11:27;;;;;;;13.53;6.30;;;19.30;59.90;;;;;;5011184;28;20202;-75
2023/05/27 09:13:57;;;;;;;12.70;6.23;;;19.20;59.50;;;;;;5014737;28;20293;-72
2023/05/27 09:16:23;;;;;;;11.83;6.27;;;19.20;59.60;;;;;;5014026;28;20468;-73
2023/05/27 09:18:49;;;;;;;18.07;7.10;;;19.20;59.60;;;;;;5011925;28;20479;-74
2023/05/27 09:21:15;;;;;;;11.87;6.90;;;19.40;59.60;;;;;;5013989;28;20421;-73
2023/05/27 09:23:41;;;;;;;15.83;6.67;;;19.40;58.50;;;;;;5014454;28;20433;-73
2023/05/27 09:26:09;;;;;;;12.87;5.90;;;19.40;59.10;;;;;;5010264;28;20479;-73
2023/05/27 09:28:36;;;;;;;20.47;7.37;;;19.40;59.10;;;;;;5009717;28;20282;-72
2023/05/27 09:31:05;;;;;;;24.53;7.80;;;19.60;58.80;;;;;;5014082;28;20463;-73
2023/05/27 09:33:40;;;;;;;12.93;5.97;;;19.60;58.90;;;;;;5007914;28;20453;-73
2023/05/27 09:36:08;;;;;;;12.37;6.03;;;19.80;58.40;;;;;;5012726;28;20987;-72
2023/05/27 09:38:35;;;;;;;17.67;6.73;;;19.80;58.40;;;;;;5008562;28;20472;-73
2023/05/27 09:41:02;;;;;;;16.87;6.30;;;19.90;58.10;;;;;;5012135;28;20438;-72
2023/05/27 09:43:29;;;;;;;13.13;6.80;;;19.90;58.10;;;;;;5013480;28;20429;-74
2023/05/27 09:46:00;;;;;;;12.37;6.40;;;20.20;57.70;;;;;;5015213;28;20464;-74
2023/05/27 09:48:26;;;;;;;16.10;6.77;;;20.10;57.70;;;;;;5010891;28;20468;-72
2023/05/27 09:50:52;;;;;;;10.10;6.57;;;20.00;57.30;;;;;;5012698;28;20441;-74
2023/05/27 09:53:21;;;;;;;12.40;6.97;;;19.80;58.00;;;;;;5010529;28;20460;-75
2023/05/27 09:55:48;;;;;;;14.27;7.00;;;19.90;58.20;;;;;;5007423;28;20422;-73
2023/05/27 09:58:14;;;;;;;13.83;6.60;;;20.10;57.60;;;;;;5012323;28;20980;-72
2023/05/27 10:00:41;;;;;;;13.60;6.43;;;20.30;57.40;;;;;;5016483;28;20449;-73
2023/05/27 10:03:07;;;;;;;15.97;6.50;;;20.50;56.40;;;;;;5014894;28;20418;-72
2023/05/27 10:05:33;;;;;;;11.73;6.03;;;20.70;56.60;;;;;;5015575;28;20434;-72
2023/05/27 10:07:59;;;;;;;13.60;6.17;;;21.20;55.70;;;;;;5010184;28;20206;-71
2023/05/27 10:10:25;;;;;;;14.30;7.80;;;21.50;54.90;;;;;;5017040;28;20431;-72
2023/05/27 10:12:53;;;;;;;16.90;6.70;;;21.50;53.60;;;;;;5012465;28;20194;-74
2023/05/27 10:15:32;;;;;;;10.43;6.70;;;21.70;53.70;;;;;;5016245;28;20195;-75
2023/05/27 10:18:03;;;;;;;16.70;7.93;;;22.10;52.80;;;;;;5011489;28;20486;-72
2023/05/27 10:20:31;;;;;;;11.30;6.90;;;22.30;52.20;;;;;;5009840;28;20459;-73
2023/05/27 10:23:15;;;;;;;23.63;6.53;;;22.20;51.30;;;;;;5012923;28;20421;-73
2023/05/27 10:25:47;;;;;;;14.73;7.80;;;22.20;51.80;;;;;;5004449;28;20430;-72
2023/05/27 10:28:27;;;;;;;12.73;7.00;;;22.40;51.20;;;;;;5009151;28;20462;-72
2023/05/27 10:30:53;;;;;;;11.67;6.97;;;22.60;51.40;;;;;;5008639;28;20419;-72
2023/05/27 10:33:32;;;;;;;15.30;7.30;;;22.90;49.90;;;;;;5010548;28;20428;-74
2023/05/27 10:36:08;;;;;;;12.60;7.10;;;22.90;49.90;;;;;;5011999;28;20609;-73
2023/05/27 10:38:35;;;;;;;17.60;7.07;;;22.80;48.60;;;;;;5006733;28;20466;-74
2023/05/27 10:41:02;;;;;;;10.77;6.57;;;22.80;49.50;;;;;;5012912;28;20460;-74
2023/05/27 10:43:29;;;;;;;13.87;6.90;;;22.70;49.70;;;;;;5010091;28;20427;-73
2023/05/27 10:46:13;;;;;;;13.63;7.00;;;22.10;50.20;;;;;;5012227;28;20422;-73
2023/05/27 10:48:39;;;;;;;17.37;7.30;;;22.20;51.00;;;;;;5010166;28;20461;-74
2023/05/27 10:51:06;;;;;;;10.57;6.70;;;22.80;49.90;;;;;;5007687;28;20430;-72
2023/05/27 10:53:34;;;;;;;16.67;7.10;;;23.00;49.30;;;;;;5011143;28;20918;-73
2023/05/27 10:56:00;;;;;;;11.93;7.50;;;23.40;48.90;;;;;;5006723;28;20471;-73
2023/05/27 10:58:26;;;;;;;10.73;6.60;;;23.70;48.50;;;;;;5008831;28;20463;-73
2023/05/27 11:00:53;;;;;;;12.90;6.47;;;24.00;47.90;;;;;;5005539;28;20539;-74
2023/05/27 11:03:24;;;;;;;14.57;6.97;;;24.30;46.90;;;;;;5014398;28;20244;-75
2023/05/27 11:06:06;;;;;;;12.23;6.97;;;24.50;46.20;;;;;;5006108;28;21039;-73
2023/05/27 11:08:33;;;;;;;13.03;6.80;;;24.60;46.10;;;;;;5006945;28;20521;-73
2023/05/27 11:11:02;;;;;;;12.83;6.80;;;24.80;45.00;;;;;;5013526;28;20787;-74
2023/05/27 11:13:42;;;;;;;15.83;6.63;;;24.70;45.30;;;;;;5013429;28;20442;-72
2023/05/27 11:16:08;;;;;;;14.27;6.53;;;24.70;44.70;;;;;;5004059;28;20508;-72
2023/05/27 11:18:39;;;;;;;10.47;7.03;;;24.30;44.60;;;;;;5007572;28;20479;-74
2023/05/27 11:21:06;;;;;;;11.20;6.80;;;22.70;46.60;;;;;;5014381;28;20556;-73
2023/05/27 11:23:45;;;;;;;12.17;6.80;;;22.80;47.40;;;;;;5017580;28;20448;-74
2023/05/27 11:26:12;;;;;;;11.63;6.40;;;23.20;46.70;;;;;;5018274;28;20918;-73
2023/05/27 11:28:44;;;;;;;12.63;8.43;;;23.30;46.30;;;;;;5009746;28;20552;-74
2023/05/27 11:31:10;;;;;;;13.53;8.20;;;22.80;47.70;;;;;;5008749;28;20908;-73
2023/05/27 11:33:44;;;;;;;15.83;8.33;;;22.80;47.40;;;;;;5012488;28;20835;-73
2023/05/27 11:36:14;;;;;;;14.70;7.17;;;23.20;47.30;;;;;;5011705;28;20841;-73
2023/05/27 11:38:47;;;;;;;9.60;6.63;;;23.90;46.10;;;;;;5005369;28;20465;-74
2023/05/27 11:41:12;;;;;;;10.27;6.43;;;24.40;45.10;;;;;;5010417;28;20430;-72
2023/05/27 11:43:47;;;;;;;10.03;6.10;;;24.80;43.80;;;;;;5008472;28;20837;-74
2023/05/27 11:46:12;;;;;;;10.77;6.20;;;24.90;42.80;;;;;;5008116;28;20218;-73
2023/05/27 11:48:38;;;;;;;17.03;6.97;;;24.80;43.10;;;;;;5007859;28;20957;-74
2023/05/27 11:51:04;;;;;;;12.67;6.90;;;25.00;42.80;;;;;;5012351;28;20671;-73
2023/05/27 11:53:30;;;;;;;12.63;6.77;;;25.10;42.40;;;;;;5011121;28;20438;-75
2023/05/27 11:55:56;;;;;;;12.93;6.37;;;24.90;42.30;;;;;;5011924;28;20191;-74
2023/05/27 11:58:21;;;;;;;9.27;5.77;;;25.00;42.60;;;;;;5010579;28;20460;-73
2023/05/27 12:00:47;;;;;;;9.10;6.20;;;24.70;43.20;;;;;;5008353;28;20193;-72
2023/05/27 12:03:12;;;;;;;13.63;7.43;;;24.80;42.60;;;;;;5012236;28;20204;-75
2023/05/27 12:05:38;;;;;;;13.30;6.90;;;23.90;44.50;;;;;;5004732;28;20190;-74
2023/05/27 12:08:04;;;;;;;13.27;8.00;;;23.60;44.20;;;;;;5009102;28;20242;-74
2023/05/27 12:10:29;;;;;;;12.87;7.53;;;23.10;44.90;;;;;;5015717;28;20194;-74
2023/05/27 12:13:05;;;;;;;13.40;7.00;;;23.50;44.60;;;;;;5015533;28;20234;-73
2023/05/27 12:15:31;;;;;;;15.00;7.07;;;24.10;43.40;;;;;;5011192;28;20720;-73
2023/05/27 12:17:57;;;;;;;12.43;7.40;;;24.60;42.70;;;;;;5003056;28;20484;-73
2023/05/27 12:20:27;;;;;;;10.97;7.00;;;24.70;41.80;;;;;;5009820;28;20808;-74
2023/05/27 12:22:53;;;;;;;14.83;6.60;;;24.60;42.60;;;;;;5010968;28;20263;-74
2023/05/27 12:25:19;;;;;;;9.33;6.47;;;24.70;42.40;;;;;;5013337;28;20545;-73
2023/05/27 12:27:45;;;;;;;13.53;7.40;;;24.90;42.00;;;;;;5023401;28;20472;-72
2023/05/27 12:30:12;;;;;;;11.90;6.63;;;25.30;41.40;;;;;;5026358;28;20205;-73
2023/05/27 12:32:38;;;;;;;13.40;7.23;;;25.40;41.50;;;;;;5025034;28;20427;-71
2023/05/27 12:35:04;;;;;;;10.90;6.70;;;25.10;41.90;;;;;;5024189;28;20529;-72
2023/05/27 12:37:30;;;;;;;12.53;5.97;;;25.40;40.80;;;;;;5029800;28;20213;-71